sensor_id;sensor_type;location;lat;lon;timestamp;pressure;altitude;pressure_sealevel;temperature;humidity
69630;BME280;56857;52.212;5.496;2023-07-29T00:01:31;100846.88;;;17.94;100.00
69630;BME280;56857;52.212;5.496;2023-07-29T00:03:56;100841.72;;;17.93;100.00
69630;BME280;56857;52.212;5.496;2023-07-29T00:06:21;100835.53;;;17.92;100.00
69630;BME280;56857;52.212;5.496;2023-07-29T00:08:47;100827.28;;;17.94;100.00
69630;BME280;56857;52.212;5.496;2023-07-29T00:11:12;100825.84;;;17.91;100.00
69630;BME280;56857;52.212;5.496;2023-07-29T00:13:37;100818.00;;;17.90;100.00
69630;BME280;56857;52.212;5.496;2023-07-29T00:16:03;100831.84;;;17.87;100.00
69630;BME280;56857;52.212;5.496;2023-07-29T00:18:28;100820.53;;;17.85;100.00
69630;BME280;56857;52.212;5.496;2023-07-29T00:20:53;100810.00;;;17.83;100.00
69630;BME280;56857;52.212;5.496;2023-07-29T00:23:18;100818.28;;;17.81;100.00
69630;BME280;56857;52.212;5.496;2023-07-29T00:25:44;100805.09;;;17.80;100.00
69630;BME280;56857;52.212;5.496;2023-07-29T00:28:11;100813.38;;;17.78;100.00
69630;BME280;56857;52.212;5.496;2023-07-29T00:30:37;100809.22;;;17.76;100.00
69630;BME280;56857;52.212;5.496;2023-07-29T00:33:02;100795.44;;;17.72;100.00
69630;BME280;56857;52.212;5.496;2023-07-29T00:35:27;100792.94;;;17.71;100.00
69630;BME280;56857;52.212;5.496;2023-07-29T00:37:53;100786.41;;;17.67;100.00
69630;BME280;56857;52.212;5.496;2023-07-29T00:40:20;100791.75;;;17.67;100.00
69630;BME280;56857;52.212;5.496;2023-07-29T00:42:46;100795.69;;;17.64;100.00
69630;BME280;56857;52.212;5.496;2023-07-29T00:45:12;100792.19;;;17.64;100.00
69630;BME280;56857;52.212;5.496;2023-07-29T00:47:37;100774.91;;;17.59;100.00
69630;BME280;56857;52.212;5.496;2023-07-29T00:50:03;100782.34;;;17.57;100.00
69630;BME280;56857;52.212;5.496;2023-07-29T00:52:29;100788.94;;;17.55;100.00
69630;BME280;56857;52.212;5.496;2023-07-29T00:54:54;100801.53;;;17.54;100.00
69630;BME280;56857;52.212;5.496;2023-07-29T00:57:20;100806.88;;;17.54;100.00
69630;BME280;56857;52.212;5.496;2023-07-29T00:59:46;100802.34;;;17.55;100.00
69630;BME280;56857;52.212;5.496;2023-07-29T01:02:12;100805.63;;;17.57;100.00
69630;BME280;56857;52.212;5.496;2023-07-29T01:04:37;100795.72;;;17.57;100.00
69630;BME280;56857;52.212;5.496;2023-07-29T01:07:23;100786.66;;;17.58;100.00
69630;BME280;56857;52.212;5.496;2023-07-29T01:12:26;100781.28;;;17.58;100.00
69630;BME280;56857;52.212;5.496;2023-07-29T01:14:59;100784.19;;;17.57;100.00
69630;BME280;56857;52.212;5.496;2023-07-29T01:17:33;100779.88;;;17.56;100.00
69630;BME280;56857;52.212;5.496;2023-07-29T01:20:07;100785.00;;;17.57;100.00
69630;BME280;56857;52.212;5.496;2023-07-29T01:22:34;100782.34;;;17.57;100.00
69630;BME280;56857;52.212;5.496;2023-07-29T01:25:00;100776.16;;;17.57;100.00
69630;BME280;56857;52.212;5.496;2023-07-29T01:27:26;100780.69;;;17.56;100.00
69630;BME280;56857;52.212;5.496;2023-07-29T01:29:52;100786.66;;;17.58;100.00
69630;BME280;56857;52.212;5.496;2023-07-29T01:37:46;100788.75;;;17.56;100.00
69630;BME280;56857;52.212;5.496;2023-07-29T01:40:13;100777.19;;;17.56;100.00
69630;BME280;56857;52.212;5.496;2023-07-29T01:42:38;100785.44;;;17.54;100.00
69630;BME280;56857;52.212;5.496;2023-07-29T01:45:04;100786.50;;;17.53;100.00
69630;BME280;56857;52.212;5.496;2023-07-29T01:47:30;100784.81;;;17.52;100.00
69630;BME280;56857;52.212;5.496;2023-07-29T01:49:55;100777.84;;;17.51;100.00
69630;BME280;56857;52.212;5.496;2023-07-29T01:52:21;100772.72;;;17.50;100.00
69630;BME280;56857;52.212;5.496;2023-07-29T01:54:46;100778.50;;;17.47;100.00
69630;BME280;56857;52.212;5.496;2023-07-29T01:57:11;100777.06;;;17.44;100.00
69630;BME280;56857;52.212;5.496;2023-07-29T01:59:37;100772.72;;;17.43;100.00
69630;BME280;56857;52.212;5.496;2023-07-29T02:02:02;100775.63;;;17.42;100.00
69630;BME280;56857;52.212;5.496;2023-07-29T02:04:27;100775.84;;;17.40;100.00
69630;BME280;56857;52.212;5.496;2023-07-29T02:06:52;100765.13;;;17.40;100.00
69630;BME280;56857;52.212;5.496;2023-07-29T02:09:18;100773.16;;;17.40;100.00
69630;BME280;56857;52.212;5.496;2023-07-29T02:11:43;100767.78;;;17.40;100.00
69630;BME280;56857;52.212;5.496;2023-07-29T02:14:08;100767.78;;;17.40;100.00
69630;BME280;56857;52.212;5.496;2023-07-29T02:16:34;100772.13;;;17.41;100.00
69630;BME280;56857;52.212;5.496;2023-07-29T02:18:59;100766.78;;;17.41;100.00
69630;BME280;56857;52.212;5.496;2023-07-29T02:21:24;100755.25;;;17.41;100.00
69630;BME280;56857;52.212;5.496;2023-07-29T02:23:50;100759.75;;;17.40;100.00
69630;BME280;56857;52.212;5.496;2023-07-29T02:26:16;100754.41;;;17.40;100.00
69630;BME280;56857;52.212;5.496;2023-07-29T02:28:41;100758.94;;;17.40;100.00
69630;BME280;56857;52.212;5.496;2023-07-29T02:31:19;100754.63;;;17.38;100.00
69630;BME280;56857;52.212;5.496;2023-07-29T02:33:44;100749.69;;;17.35;100.00
69630;BME280;56857;52.212;5.496;2023-07-29T02:36:12;100753.19;;;17.36;100.00
69630;BME280;56857;52.212;5.496;2023-07-29T02:38:38;100756.69;;;17.36;100.00
69630;BME280;56857;52.212;5.496;2023-07-29T02:41:04;100758.78;;;17.34;100.00
69630;BME280;56857;52.212;5.496;2023-07-29T02:43:29;100766.81;;;17.34;100.00
69630;BME280;56857;52.212;5.496;2023-07-29T02:45:54;100757.97;;;17.34;100.00
69630;BME280;56857;52.212;5.496;2023-07-29T02:48:20;100759.81;;;17.33;100.00
69630;BME280;56857;52.212;5.496;2023-07-29T02:50:45;100758.16;;;17.32;100.00
69630;BME280;56857;52.212;5.496;2023-07-29T02:53:11;100757.78;;;17.29;100.00
69630;BME280;56857;52.212;5.496;2023-07-29T02:55:39;100744.81;;;17.26;100.00
69630;BME280;56857;52.212;5.496;2023-07-29T02:58:05;100745.63;;;17.26;100.00
69630;BME280;56857;52.212;5.496;2023-07-29T03:00:31;100746.69;;;17.25;100.00
69630;BME280;56857;52.212;5.496;2023-07-29T03:02:56;100748.53;;;17.25;100.00
69630;BME280;56857;52.212;5.496;2023-07-29T03:05:22;100746.88;;;17.24;100.00
69630;BME280;56857;52.212;5.496;2023-07-29T03:07:47;100746.28;;;17.22;100.00
69630;BME280;56857;52.212;5.496;2023-07-29T03:10:12;100744.63;;;17.21;100.00
69630;BME280;56857;52.212;5.496;2023-07-29T03:12:38;100745.69;;;17.20;100.00
69630;BME280;56857;52.212;5.496;2023-07-29T03:15:03;100744.88;;;17.19;100.00
69630;BME280;56857;52.212;5.496;2023-07-29T03:17:29;100741.56;;;17.17;100.00
69630;BME280;56857;52.212;5.496;2023-07-29T03:19:54;100740.75;;;17.17;100.00
69630;BME280;56857;52.212;5.496;2023-07-29T03:22:19;100732.09;;;17.14;100.00
69630;BME280;56857;52.212;5.496;2023-07-29T03:24:45;100731.72;;;17.11;100.00
69630;BME280;56857;52.212;5.496;2023-07-29T03:27:10;100730.91;;;17.10;100.00
69630;BME280;56857;52.212;5.496;2023-07-29T03:29:35;100731.13;;;17.09;100.00
69630;BME280;56857;52.212;5.496;2023-07-29T03:32:01;100731.13;;;17.09;100.00
69630;BME280;56857;52.212;5.496;2023-07-29T03:34:26;100735.44;;;17.10;100.00
69630;BME280;56857;52.212;5.496;2023-07-29T03:36:51;100730.91;;;17.10;100.00
69630;BME280;56857;52.212;5.496;2023-07-29T03:39:17;100738.13;;;17.10;100.00
69630;BME280;56857;52.212;5.496;2023-07-29T03:41:42;100735.44;;;17.10;100.00
69630;BME280;56857;52.212;5.496;2023-07-29T03:44:07;100742.66;;;17.09;100.00
69630;BME280;56857;52.212;5.496;2023-07-29T03:46:32;100734.00;;;17.07;100.00
69630;BME280;56857;52.212;5.496;2023-07-29T03:48:58;100730.28;;;17.08;100.00
69630;BME280;56857;52.212;5.496;2023-07-29T03:51:23;100730.50;;;17.07;100.00
69630;BME280;56857;52.212;5.496;2023-07-29T03:53:48;100727.00;;;17.06;100.00
69630;BME280;56857;52.212;5.496;2023-07-29T03:56:14;100721.03;;;17.04;100.00
69630;BME280;56857;52.212;5.496;2023-07-29T03:58:39;100724.75;;;17.03;100.00
69630;BME280;56857;52.212;5.496;2023-07-29T04:01:04;100731.75;;;17.04;100.00
69630;BME280;56857;52.212;5.496;2023-07-29T04:03:30;100723.72;;;17.04;100.00
69630;BME280;56857;52.212;5.496;2023-07-29T04:05:55;100733.00;;;17.02;100.00
69630;BME280;56857;52.212;5.496;2023-07-29T04:08:21;100738.59;;;17.00;100.00
69630;BME280;56857;52.212;5.496;2023-07-29T04:10:46;100733.44;;;16.99;100.00
69630;BME280;56857;52.212;5.496;2023-07-29T04:13:11;100740.06;;;16.96;100.00
69630;BME280;56857;52.212;5.496;2023-07-29T04:15:36;100746.41;;;16.95;100.00
69630;BME280;56857;52.212;5.496;2023-07-29T04:18:02;100744.56;;;16.96;100.00
69630;BME280;56857;52.212;5.496;2023-07-29T04:20:27;100739.22;;;16.96;100.00
69630;BME280;56857;52.212;5.496;2023-07-29T04:22:52;100748.28;;;16.95;100.00
69630;BME280;56857;52.212;5.496;2023-07-29T04:25:18;100742.13;;;16.94;100.00
69630;BME280;56857;52.212;5.496;2023-07-29T04:27:43;100731.59;;;16.92;100.00
69630;BME280;56857;52.212;5.496;2023-07-29T04:30:09;100729.53;;;16.95;100.00
69630;BME280;56857;52.212;5.496;2023-07-29T04:32:34;100718.84;;;16.95;100.00
69630;BME280;56857;52.212;5.496;2023-07-29T04:34:59;100728.72;;;16.94;100.00
69630;BME280;56857;52.212;5.496;2023-07-29T04:37:25;100728.28;;;16.97;100.00
69630;BME280;56857;52.212;5.496;2023-07-29T04:39:50;100726.66;;;16.96;100.00
69630;BME280;56857;52.212;5.496;2023-07-29T04:42:16;100739.81;;;16.98;100.00
69630;BME280;56857;52.212;5.496;2023-07-29T04:44:41;100735.28;;;16.98;100.00
69630;BME280;56857;52.212;5.496;2023-07-29T04:47:06;100741.69;;;16.97;100.00
69630;BME280;56857;52.212;5.496;2023-07-29T04:49:32;100743.31;;;16.98;100.00
69630;BME280;56857;52.212;5.496;2023-07-29T04:51:57;100735.28;;;16.98;100.00
69630;BME280;56857;52.212;5.496;2023-07-29T04:54:22;100743.94;;;17.00;100.00
69630;BME280;56857;52.212;5.496;2023-07-29T04:56:48;100739.63;;;16.99;100.00
69630;BME280;56857;52.212;5.496;2023-07-29T04:59:13;100738.78;;;16.99;100.00
69630;BME280;56857;52.212;5.496;2023-07-29T05:01:38;100746.81;;;16.99;100.00
69630;BME280;56857;52.212;5.496;2023-07-29T05:04:03;100745.41;;;16.96;100.00
69630;BME280;56857;52.212;5.496;2023-07-29T05:06:29;100751.78;;;16.95;100.00
69630;BME280;56857;52.212;5.496;2023-07-29T05:08:56;100746.41;;;16.95;100.00
69630;BME280;56857;52.212;5.496;2023-07-29T05:11:21;100749.72;;;16.97;100.00
69630;BME280;56857;52.212;5.496;2023-07-29T05:13:47;100751.97;;;17.00;100.00
69630;BME280;56857;52.212;5.496;2023-07-29T05:16:12;100758.16;;;17.01;100.00
69630;BME280;56857;52.212;5.496;2023-07-29T05:18:37;100761.44;;;17.03;100.00
69630;BME280;56857;52.212;5.496;2023-07-29T05:21:03;100761.84;;;17.06;100.00
69630;BME280;56857;52.212;5.496;2023-07-29T05:23:28;100762.41;;;17.08;100.00
69630;BME280;56857;52.212;5.496;2023-07-29T05:25:53;100760.97;;;17.12;100.00
69630;BME280;56857;52.212;5.496;2023-07-29T05:28:18;100757.47;;;17.12;100.00
69630;BME280;56857;52.212;5.496;2023-07-29T05:30:44;100759.94;;;17.13;100.00
69630;BME280;56857;52.212;5.496;2023-07-29T05:33:09;100764.47;;;17.13;100.00
69630;BME280;56857;52.212;5.496;2023-07-29T05:35:34;100760.75;;;17.14;100.00
69630;BME280;56857;52.212;5.496;2023-07-29T05:38:00;100759.72;;;17.15;100.00
69630;BME280;56857;52.212;5.496;2023-07-29T05:40:25;100757.88;;;17.16;100.00
69630;BME280;56857;52.212;5.496;2023-07-29T05:42:50;100752.09;;;17.19;100.00
69630;BME280;56857;52.212;5.496;2023-07-29T05:45:16;100761.94;;;17.25;100.00
69630;BME280;56857;52.212;5.496;2023-07-29T05:47:41;100765.22;;;17.27;100.00
69630;BME280;56857;52.212;5.496;2023-07-29T05:50:07;100763.97;;;17.29;100.00
69630;BME280;56857;52.212;5.496;2023-07-29T05:52:32;100769.94;;;17.31;100.00
69630;BME280;56857;52.212;5.496;2023-07-29T05:54:58;100767.63;;;17.35;100.00
69630;BME280;56857;52.212;5.496;2023-07-29T05:57:23;100768.25;;;17.37;100.00
69630;BME280;56857;52.212;5.496;2023-07-29T05:59:48;100781.00;;;17.42;100.00
69630;BME280;56857;52.212;5.496;2023-07-29T06:02:14;100771.09;;;17.42;100.00
69630;BME280;56857;52.212;5.496;2023-07-29T06:04:39;100769.84;;;17.45;100.00
69630;BME280;56857;52.212;5.496;2023-07-29T06:07:05;100768.16;;;17.50;100.00
69630;BME280;56857;52.212;5.496;2023-07-29T06:09:30;100778.66;;;17.52;100.00
69630;BME280;56857;52.212;5.496;2023-07-29T06:11:55;100781.34;;;17.52;100.00
69630;BME280;56857;52.212;5.496;2023-07-29T06:14:21;100772.28;;;17.53;100.00
69630;BME280;56857;52.212;5.496;2023-07-29T06:16:46;100764.63;;;17.56;100.00
69630;BME280;56857;52.212;5.496;2023-07-29T06:19:11;100770.13;;;17.61;100.00
69630;BME280;56857;52.212;5.496;2023-07-29T06:21:37;100772.75;;;17.68;100.00
69630;BME280;56857;52.212;5.496;2023-07-29T06:24:02;100766.97;;;17.71;100.00
69630;BME280;56857;52.212;5.496;2023-07-29T06:26:27;100768.59;;;17.79;100.00
69630;BME280;56857;52.212;5.496;2023-07-29T06:28:53;100762.75;;;17.89;100.00
69630;BME280;56857;52.212;5.496;2023-07-29T06:31:18;100772.16;;;17.98;100.00
69630;BME280;56857;52.212;5.496;2023-07-29T06:33:44;100772.69;;;18.06;100.00
69630;BME280;56857;52.212;5.496;2023-07-29T06:36:10;100772.84;;;18.12;100.00
69630;BME280;56857;52.212;5.496;2023-07-29T06:38:35;100760.41;;;18.17;100.00
69630;BME280;56857;52.212;5.496;2023-07-29T06:41:00;100769.88;;;18.20;100.00
69630;BME280;56857;52.212;5.496;2023-07-29T06:43:26;100759.53;;;18.23;100.00
69630;BME280;56857;52.212;5.496;2023-07-29T06:45:51;100767.59;;;18.23;100.00
69630;BME280;56857;52.212;5.496;2023-07-29T06:48:16;100763.25;;;18.22;100.00
69630;BME280;56857;52.212;5.496;2023-07-29T06:50:42;100775.03;;;18.21;100.00
69630;BME280;56857;52.212;5.496;2023-07-29T06:53:07;100768.84;;;18.21;100.00
69630;BME280;56857;52.212;5.496;2023-07-29T06:55:32;100770.69;;;18.20;100.00
69630;BME280;56857;52.212;5.496;2023-07-29T06:57:57;100780.19;;;18.23;100.00
69630;BME280;56857;52.212;5.496;2023-07-29T07:00:23;100779.00;;;18.37;100.00
69630;BME280;56857;52.212;5.496;2023-07-29T07:02:48;100777.44;;;18.48;100.00
69630;BME280;56857;52.212;5.496;2023-07-29T07:05:14;100790.72;;;18.61;100.00
69630;BME280;56857;52.212;5.496;2023-07-29T07:07:39;100787.47;;;18.78;100.00
69630;BME280;56857;52.212;5.496;2023-07-29T07:10:04;100779.41;;;18.78;100.00
69630;BME280;56857;52.212;5.496;2023-07-29T07:12:30;100782.34;;;18.69;100.00
69630;BME280;56857;52.212;5.496;2023-07-29T07:14:55;100786.44;;;18.72;100.00
69630;BME280;56857;52.212;5.496;2023-07-29T07:17:20;100787.09;;;18.74;100.00
69630;BME280;56857;52.212;5.496;2023-07-29T07:19:46;100785.13;;;18.81;100.00
69630;BME280;56857;52.212;5.496;2023-07-29T07:22:11;100770.44;;;18.84;100.00
69630;BME280;56857;52.212;5.496;2023-07-29T07:24:36;100784.41;;;18.92;100.00
69630;BME280;56857;52.212;5.496;2023-07-29T07:27:02;100788.16;;;19.03;100.00
69630;BME280;56857;52.212;5.496;2023-07-29T07:29:27;100784.38;;;19.11;100.00
69630;BME280;56857;52.212;5.496;2023-07-29T07:31:53;100782.41;;;19.18;100.00
69630;BME280;56857;52.212;5.496;2023-07-29T07:34:20;100791.66;;;19.22;100.00
69630;BME280;56857;52.212;5.496;2023-07-29T07:36:45;100792.47;;;19.22;100.00
69630;BME280;56857;52.212;5.496;2023-07-29T07:39:11;100792.34;;;19.17;100.00
69630;BME280;56857;52.212;5.496;2023-07-29T07:41:36;100781.69;;;19.11;100.00
69630;BME280;56857;52.212;5.496;2023-07-29T07:44:01;100796.03;;;19.05;100.00
69630;BME280;56857;52.212;5.496;2023-07-29T07:46:26;100790.66;;;19.05;100.00
69630;BME280;56857;52.212;5.496;2023-07-29T07:48:52;100792.44;;;19.11;100.00
69630;BME280;56857;52.212;5.496;2023-07-29T07:51:17;100789.75;;;19.11;100.00
69630;BME280;56857;52.212;5.496;2023-07-29T07:53:42;100787.63;;;19.13;100.00
69630;BME280;56857;52.212;5.496;2023-07-29T07:56:08;100790.91;;;19.15;100.00
69630;BME280;56857;52.212;5.496;2023-07-29T07:58:33;100791.88;;;19.20;100.00
69630;BME280;56857;52.212;5.496;2023-07-29T08:01:05;100792.38;;;19.29;100.00
69630;BME280;56857;52.212;5.496;2023-07-29T08:03:31;100786.00;;;19.42;100.00
69630;BME280;56857;52.212;5.496;2023-07-29T08:05:56;100790.25;;;19.61;100.00
69630;BME280;56857;52.212;5.496;2023-07-29T08:08:22;100789.47;;;19.73;100.00
69630;BME280;56857;52.212;5.496;2023-07-29T08:10:47;100781.66;;;19.83;100.00
69630;BME280;56857;52.212;5.496;2023-07-29T08:13:12;100783.66;;;19.87;100.00
69630;BME280;56857;52.212;5.496;2023-07-29T08:15:38;100793.97;;;19.90;100.00
69630;BME280;56857;52.212;5.496;2023-07-29T08:18:03;100797.94;;;19.88;100.00
69630;BME280;56857;52.212;5.496;2023-07-29T08:20:28;100787.03;;;19.83;100.00
69630;BME280;56857;52.212;5.496;2023-07-29T08:22:53;100792.66;;;19.81;100.00
69630;BME280;56857;52.212;5.496;2023-07-29T08:25:19;100788.59;;;19.90;100.00
69630;BME280;56857;52.212;5.496;2023-07-29T08:27:44;100793.63;;;20.34;100.00
69630;BME280;56857;52.212;5.496;2023-07-29T08:30:10;100795.75;;;20.55;100.00
69630;BME280;56857;52.212;5.496;2023-07-29T08:32:35;100792.09;;;20.50;100.00
69630;BME280;56857;52.212;5.496;2023-07-29T08:35:01;100795.50;;;20.33;100.00
69630;BME280;56857;52.212;5.496;2023-07-29T08:37:26;100793.50;;;20.17;100.00
69630;BME280;56857;52.212;5.496;2023-07-29T08:39:51;100793.28;;;20.07;100.00
69630;BME280;56857;52.212;5.496;2023-07-29T08:42:19;100789.28;;;20.33;100.00
69630;BME280;56857;52.212;5.496;2023-07-29T08:44:45;100785.72;;;20.79;100.00
69630;BME280;56857;52.212;5.496;2023-07-29T08:47:14;100787.63;;;21.08;100.00
69630;BME280;56857;52.212;5.496;2023-07-29T08:49:40;100785.28;;;21.11;100.00
69630;BME280;56857;52.212;5.496;2023-07-29T08:52:07;100781.66;;;21.63;100.00
69630;BME280;56857;52.212;5.496;2023-07-29T08:54:32;100779.63;;;22.04;100.00
69630;BME280;56857;52.212;5.496;2023-07-29T08:56:58;100778.13;;;21.96;100.00
69630;BME280;56857;52.212;5.496;2023-07-29T08:59:25;100780.38;;;21.82;100.00
69630;BME280;56857;52.212;5.496;2023-07-29T09:01:52;100780.81;;;21.62;100.00
69630;BME280;56857;52.212;5.496;2023-07-29T09:04:18;100775.91;;;21.42;100.00
69630;BME280;56857;52.212;5.496;2023-07-29T09:06:45;100778.88;;;21.29;100.00
69630;BME280;56857;52.212;5.496;2023-07-29T09:09:12;100784.09;;;21.19;100.00
69630;BME280;56857;52.212;5.496;2023-07-29T09:11:37;100788.78;;;21.12;100.00
69630;BME280;56857;52.212;5.496;2023-07-29T09:14:02;100798.75;;;21.11;100.00
69630;BME280;56857;52.212;5.496;2023-07-29T09:16:28;100789.97;;;21.16;100.00
69630;BME280;56857;52.212;5.496;2023-07-29T09:18:54;100793.94;;;21.13;100.00
69630;BME280;56857;52.212;5.496;2023-07-29T09:21:23;100795.75;;;20.96;100.00
69630;BME280;56857;52.212;5.496;2023-07-29T09:23:51;100799.69;;;20.76;100.00
69630;BME280;56857;52.212;5.496;2023-07-29T09:28:52;100800.41;;;20.48;100.00
69630;BME280;56857;52.212;5.496;2023-07-29T09:31:22;100794.69;;;20.56;100.00
69630;BME280;56857;52.212;5.496;2023-07-29T09:33:48;100795.97;;;20.66;100.00
69630;BME280;56857;52.212;5.496;2023-07-29T09:36:14;100798.66;;;20.66;100.00
69630;BME280;56857;52.212;5.496;2023-07-29T09:38:39;100791.28;;;20.61;100.00
69630;BME280;56857;52.212;5.496;2023-07-29T09:41:05;100784.44;;;20.82;100.00
69630;BME280;56857;52.212;5.496;2023-07-29T09:43:31;100786.19;;;21.17;100.00
69630;BME280;56857;52.212;5.496;2023-07-29T09:46:01;100782.84;;;21.38;100.00
69630;BME280;56857;52.212;5.496;2023-07-29T09:48:26;100782.47;;;21.97;100.00
69630;BME280;56857;52.212;5.496;2023-07-29T09:50:51;100780.13;;;22.01;100.00
69630;BME280;56857;52.212;5.496;2023-07-29T09:53:17;100773.94;;;22.39;100.00
69630;BME280;56857;52.212;5.496;2023-07-29T09:55:47;100783.25;;;22.92;100.00
69630;BME280;56857;52.212;5.496;2023-07-29T09:58:12;100784.31;;;22.69;100.00
69630;BME280;56857;52.212;5.496;2023-07-29T10:00:38;100773.50;;;22.47;100.00
69630;BME280;56857;52.212;5.496;2023-07-29T10:03:03;100777.78;;;22.43;100.00
69630;BME280;56857;52.212;5.496;2023-07-29T10:05:29;100776.25;;;22.30;100.00
69630;BME280;56857;52.212;5.496;2023-07-29T10:07:55;100774.53;;;22.07;100.00
69630;BME280;56857;52.212;5.496;2023-07-29T10:10:21;100779.28;;;21.83;100.00
69630;BME280;56857;52.212;5.496;2023-07-29T10:12:46;100776.81;;;21.65;100.00
69630;BME280;56857;52.212;5.496;2023-07-29T10:15:12;100778.44;;;21.49;100.00
69630;BME280;56857;52.212;5.496;2023-07-29T10:17:39;100791.16;;;21.37;100.00
69630;BME280;56857;52.212;5.496;2023-07-29T10:20:06;100791.06;;;21.32;100.00
69630;BME280;56857;52.212;5.496;2023-07-29T10:22:36;100795.03;;;21.41;100.00
69630;BME280;56857;52.212;5.496;2023-07-29T10:25:16;100796.13;;;21.90;100.00
69630;BME280;56857;52.212;5.496;2023-07-29T10:27:43;100789.34;;;22.05;100.00
69630;BME280;56857;52.212;5.496;2023-07-29T10:30:12;100788.84;;;22.25;100.00
69630;BME280;56857;52.212;5.496;2023-07-29T10:32:38;100799.63;;;22.63;100.00
69630;BME280;56857;52.212;5.496;2023-07-29T10:35:04;100791.28;;;22.87;100.00
69630;BME280;56857;52.212;5.496;2023-07-29T10:39:55;100796.50;;;22.72;100.00
69630;BME280;56857;52.212;5.496;2023-07-29T10:42:21;100797.00;;;22.47;100.00
69630;BME280;56857;52.212;5.496;2023-07-29T10:44:47;100805.06;;;22.25;100.00
69630;BME280;56857;52.212;5.496;2023-07-29T10:47:23;100807.59;;;21.97;100.00
69630;BME280;56857;52.212;5.496;2023-07-29T10:49:51;100807.31;;;21.65;100.00
69630;BME280;56857;52.212;5.496;2023-07-29T10:52:28;100814.25;;;21.33;100.00
69630;BME280;56857;52.212;5.496;2023-07-29T10:54:54;100817.28;;;21.08;100.00
69630;BME280;56857;52.212;5.496;2023-07-29T10:57:34;100813.59;;;20.85;100.00
69630;BME280;56857;52.212;5.496;2023-07-29T11:00:01;100805.53;;;20.73;100.00
69630;BME280;56857;52.212;5.496;2023-07-29T11:02:35;100819.28;;;20.60;100.00
69630;BME280;56857;52.212;5.496;2023-07-29T11:05:05;100821.94;;;20.48;100.00
69630;BME280;56857;52.212;5.496;2023-07-29T11:07:43;100814.91;;;20.35;100.00
69630;BME280;56857;52.212;5.496;2023-07-29T11:10:08;100809.91;;;20.27;100.00
69630;BME280;56857;52.212;5.496;2023-07-29T11:12:38;100823.69;;;20.19;100.00
69630;BME280;56857;52.212;5.496;2023-07-29T11:17:34;100837.28;;;20.36;100.00
69630;BME280;56857;52.212;5.496;2023-07-29T11:20:01;100836.81;;;20.51;100.00
69630;BME280;56857;52.212;5.496;2023-07-29T11:22:27;100836.59;;;20.64;100.00
69630;BME280;56857;52.212;5.496;2023-07-29T11:24:53;100839.03;;;20.77;100.00
69630;BME280;56857;52.212;5.496;2023-07-29T11:27:18;100842.44;;;20.85;100.00
69630;BME280;56857;52.212;5.496;2023-07-29T11:29:43;100834.44;;;20.90;100.00
69630;BME280;56857;52.212;5.496;2023-07-29T11:32:09;100831.38;;;20.98;100.00
69630;BME280;56857;52.212;5.496;2023-07-29T11:34:34;100833.59;;;21.01;100.00
69630;BME280;56857;52.212;5.496;2023-07-29T11:37:00;100837.84;;;20.97;100.00
69630;BME280;56857;52.212;5.496;2023-07-29T11:39:25;100830.38;;;20.87;100.00
69630;BME280;56857;52.212;5.496;2023-07-29T11:41:50;100825.69;;;20.71;100.00
69630;BME280;56857;52.212;5.496;2023-07-29T11:44:19;100823.59;;;20.61;100.00
69630;BME280;56857;52.212;5.496;2023-07-29T11:46:44;100826.66;;;20.53;100.00
69630;BME280;56857;52.212;5.496;2023-07-29T11:49:10;100832.72;;;20.48;100.00
69630;BME280;56857;52.212;5.496;2023-07-29T11:51:36;100842.53;;;20.43;100.00
69630;BME280;56857;52.212;5.496;2023-07-29T11:54:02;100837.53;;;20.34;100.00
69630;BME280;56857;52.212;5.496;2023-07-29T11:56:27;100836.22;;;20.25;100.00
69630;BME280;56857;52.212;5.496;2023-07-29T11:58:53;100836.44;;;20.24;100.00
69630;BME280;56857;52.212;5.496;2023-07-29T12:01:19;100836.69;;;20.22;100.00
69630;BME280;56857;52.212;5.496;2023-07-29T12:03:44;100842.22;;;20.27;100.00
69630;BME280;56857;52.212;5.496;2023-07-29T12:06:10;100832.25;;;20.40;100.00
69630;BME280;56857;52.212;5.496;2023-07-29T12:08:36;100832.41;;;20.56;100.00
69630;BME280;56857;52.212;5.496;2023-07-29T12:11:01;100837.41;;;20.76;100.00
69630;BME280;56857;52.212;5.496;2023-07-29T12:13:26;100838.50;;;21.04;100.00
69630;BME280;56857;52.212;5.496;2023-07-29T12:15:51;100832.06;;;21.45;100.00
69630;BME280;56857;52.212;5.496;2023-07-29T12:18:17;100830.06;;;21.86;100.00
69630;BME280;56857;52.212;5.496;2023-07-29T12:20:43;100836.19;;;22.15;100.00
69630;BME280;56857;52.212;5.496;2023-07-29T12:23:08;100822.25;;;22.35;100.00
69630;BME280;56857;52.212;5.496;2023-07-29T12:25:34;100827.78;;;22.46;100.00
69630;BME280;56857;52.212;5.496;2023-07-29T12:28:06;100831.00;;;22.64;100.00
69630;BME280;56857;52.212;5.496;2023-07-29T12:30:32;100826.84;;;22.79;100.00
69630;BME280;56857;52.212;5.496;2023-07-29T12:32:57;100817.31;;;22.71;100.00
69630;BME280;56857;52.212;5.496;2023-07-29T12:35:23;100816.72;;;22.47;100.00
69630;BME280;56857;52.212;5.496;2023-07-29T12:37:58;100813.56;;;22.33;100.00
69630;BME280;56857;52.212;5.496;2023-07-29T12:40:24;100807.25;;;22.28;100.00
69630;BME280;56857;52.212;5.496;2023-07-29T12:42:50;100807.34;;;22.16;100.00
69630;BME280;56857;52.212;5.496;2023-07-29T12:45:16;100820.75;;;22.11;100.00
69630;BME280;56857;52.212;5.496;2023-07-29T12:47:41;100808.59;;;21.91;100.00
69630;BME280;56857;52.212;5.496;2023-07-29T12:50:07;100808.47;;;21.69;100.00